Rensselaer, Indiana
Current Conditions -  °F | °C
As of 3:35 AM on Tuesday 21 Oct 2014 (Local Time) from KRZL Reporting Station
Overcast Overcast  
Wind Chill: 48°   Ceiling: 4800
Heat Index: 48°   Visibility: 10mi
Dew Point: 46°   Wind: 3mph
Humidity: 93%   Direction: 280°W
Pressure: 30"   Gusts: NA
Location:  40.94°N, 87.15°W
Report Text: KRZL 210835Z AUTO 28003KT 10SM OVC048 09/08 A3000 RMK AO2
Loading
Personal Weather Stations






























Interactive Weather Map
Tropical Storm Tracking
New forecast layout! Learn more

10-Day Weather Forecast

Advertisements
Track Severe Weather on mobile